Atlantic Elm — 9HA3054 — position and weather

sailwx.info

Track history (hours):
 
Tides and Currents Weather Stations Pressure Air Temp Water Temp Dewpoint Dewpoint Depression Visibility Wind Speed Wind Dir Waves Ship Positions

Atlantic Elm

Last reported at 2017-Feb-14 21:33 UTC. Time now 2017-Feb-19 21:06 UTC.
Position N 31°06' E 122°31'.

Length 190 m; draft 10.5 m.

Type: Ship (hazmat cat A). MMSI: 229081000.

Date/timePositionNaut miles runAvg speedWind from/ knotsBaromVisibWave heightAir tempDewpointWater temp
2017-Feb-14 21:33N 31°06' E 122°31'1312.6
2017-Feb-14 20:32N 31°07' E 122°16'1312.9
2017-Feb-14 19:33N 31°14' E 122°04'1110.6
2017-Feb-14 18:33N 31°16' E 121°52'10 9.6
2017-Feb-14 17:33N 31°20' E 121°41'10 9.5
2017-Feb-14 16:33N 31°25' E 121°32'1010.3
2017-Feb-14 15:33N 31°31' E 121°22'1313.1
2017-Feb-14 14:33N 31°41' E 121°11'1212.5
2017-Feb-14 13:33N 31°47' E 120°59'2410.0
2017-Feb-14 11:10N 32°00' E 120°35'610.1
2017-Feb-14 10:32N 32°02' E 120°28'8 8.1
2017-Feb-14 09:33N 31°58' E 120°20'  
2017-Feb-09 09:29N 32°00' E 120°23'1011.0
2017-Feb-09 08:33N 32°00' E 120°35'2210.0
2017-Feb-09 06:19N 31°47' E 120°56'1012.6
2017-Feb-09 05:33N 31°44' E 121°07'1313.4
2017-Feb-09 04:33N 31°35' E 121°18'1212.0
2017-Feb-09 03:33N 31°27' E 121°29'9 9.5
2017-Feb-09 02:33N 31°22' E 121°38'1312.5
2017-Feb-09 01:33N 31°13' E 121°49'1312.7
2017-Feb-09 00:33N 31°05' E 122°00'7 6.6
2017-Feb-08 23:33N 31°04' E 122°08'9 8.9
2017-Feb-08 22:33N 31°02' E 122°18'9 8.3
2017-Feb-08 21:27N 31°01' E 122°29'  
Track history (hours):
 
Tides and Currents Weather Stations Pressure Air Temp Water Temp Dewpoint Dewpoint Depression Visibility Wind Speed Wind Dir Waves Ship Positions

Atlantic Elm

Last reported at 2017-Feb-14 21:33 UTC. Time now 2017-Feb-19 21:06 UTC.
Position N 31°06' E 122°31'.

Length 190 m; draft 10.5 m.

Type: Ship (hazmat cat A). MMSI: 229081000.

Date/timePositionNaut miles runAvg speedWind from/ knotsBaromVisibWave heightAir tempDewpointWater temp
2017-Feb-14 21:33N 31°06' E 122°31'1312.6
2017-Feb-14 20:32N 31°07' E 122°16'1312.9
2017-Feb-14 19:33N 31°14' E 122°04'1110.6
2017-Feb-14 18:33N 31°16' E 121°52'10 9.6
2017-Feb-14 17:33N 31°20' E 121°41'10 9.5
2017-Feb-14 16:33N 31°25' E 121°32'1010.3
2017-Feb-14 15:33N 31°31' E 121°22'1313.1
2017-Feb-14 14:33N 31°41' E 121°11'1212.5
2017-Feb-14 13:33N 31°47' E 120°59'2410.0
2017-Feb-14 11:10N 32°00' E 120°35'610.1
2017-Feb-14 10:32N 32°02' E 120°28'8 8.1
2017-Feb-14 09:33N 31°58' E 120°20'  
2017-Feb-09 09:29N 32°00' E 120°23'1011.0
2017-Feb-09 08:33N 32°00' E 120°35'2210.0
2017-Feb-09 06:19N 31°47' E 120°56'1012.6
2017-Feb-09 05:33N 31°44' E 121°07'1313.4
2017-Feb-09 04:33N 31°35' E 121°18'1212.0
2017-Feb-09 03:33N 31°27' E 121°29'9 9.5
2017-Feb-09 02:33N 31°22' E 121°38'1312.5
2017-Feb-09 01:33N 31°13' E 121°49'1312.7
2017-Feb-09 00:33N 31°05' E 122°00'7 6.6
2017-Feb-08 23:33N 31°04' E 122°08'9 8.9
2017-Feb-08 22:33N 31°02' E 122°18'9 8.3
2017-Feb-08 21:27N 31°01' E 122°29'  

Dump ship's entire track history